Terminal Aerodrome Forecast
Issued by NWS

Home | Current Version | Previous Version | Text Only | Print | Product List | Glossary On
Versions: 1 2 3 4 5 6 7 8 9 10 11 12 13 14 15 16 17
299
FTUS45 KRIW 171735
TAFBPI
TAF
KBPI 171735Z 1718/1818 30012G20KT P6SM VCSH SCT030 BKN050
     FM180000 33023G33KT 2SM -SN BKN020 OVC050
     FM180500 35010KT P6SM SCT050 BKN080
     FM180700 34007KT P6SM SCT100=

USA.gov is the U.S. government's official web portal to all federal, state and local government web resources and services.